N77LD KGCN-
Flight info
| Callsign | N77LD |
|---|---|
| Flight time | N/A |
| Altitude | VFR |
| Route | |
| Aircraft | SF50/L-DOV/C |
Departure
| Time | 2026-04-29 22:53 |
|---|---|
| Airport | Grand Canyon National Park Airport (KGCN) |
Arrival
| Time | N/A |
|---|---|
| Airport | - |
| Time | Latitude | Longitude | Altitude | Speed | Heading |
|---|---|---|---|---|---|
| 2026-04-29 22:42 | 35.96159 | -112.13504 | 6612 ft | 0 kts | 43° |
| 2026-04-29 22:46 | 35.96159 | -112.13503 | 6612 ft | 0 kts | 43° |
| 2026-04-29 22:47 | 35.96183 | -112.13504 | 6612 ft | 9 kts | 307° |
| 2026-04-29 22:47 | 35.96150 | -112.13554 | 6612 ft | 9 kts | 224° |
| 2026-04-29 22:47 | 35.96138 | -112.13597 | 6612 ft | 0 kts | 290° |
| 2026-04-29 22:51 | 35.96145 | -112.13619 | 6612 ft | 7 kts | 275° |
| 2026-04-29 22:51 | 35.96147 | -112.13688 | 6611 ft | 9 kts | 291° |
| 2026-04-29 22:51 | 35.96147 | -112.13738 | 6611 ft | 0 kts | 216° |
| 2026-04-29 22:52 | 35.96145 | -112.13740 | 6611 ft | 7 kts | 218° |
| 2026-04-29 22:52 | 35.95977 | -112.13921 | 6603 ft | 56 kts | 221° |
| 2026-04-29 22:52 | 35.95567 | -112.14347 | 6601 ft | 96 kts | 221° |
| 2026-04-29 22:52 | 35.95034 | -112.14904 | 6844 ft | 103 kts | 219° |
| 2026-04-29 22:53 | 35.94469 | -112.15469 | 7176 ft | 107 kts | 219° |
| 2026-04-29 22:53 | 35.93853 | -112.16095 | 7354 ft | 123 kts | 222° |
| 2026-04-29 22:53 | 35.93174 | -112.16795 | 7770 ft | 128 kts | 219° |
| 2026-04-29 22:53 | 35.92403 | -112.17366 | 8284 ft | 131 kts | 195° |
| 2026-04-29 22:54 | 35.92099 | -112.17402 | 8501 ft | 131 kts | 182° |
| 2026-04-29 22:54 | 35.90945 | -112.16139 | 9299 ft | 144 kts | 107° |
| 2026-04-29 22:54 | 35.91373 | -112.15097 | 9404 ft | 164 kts | 60° |
| 2026-04-29 22:54 | 35.91911 | -112.13916 | 10065 ft | 152 kts | 56° |
| 2026-04-29 22:55 | 35.92536 | -112.12850 | 10471 ft | 156 kts | 51° |
| 2026-04-29 22:55 | 35.93221 | -112.11782 | 10842 ft | 162 kts | 47° |
| 2026-04-29 22:55 | 35.93948 | -112.10750 | 11323 ft | 157 kts | 44° |
| 2026-04-29 22:55 | 35.94716 | -112.09751 | 11669 ft | 164 kts | 43° |
| 2026-04-29 22:56 | 35.95490 | -112.08758 | 12178 ft | 158 kts | 42° |
| 2026-04-29 22:56 | 35.96272 | -112.07790 | 12523 ft | 163 kts | 41° |
| 2026-04-29 22:56 | 35.97058 | -112.06782 | 12923 ft | 165 kts | 45° |
| 2026-04-29 22:56 | 35.97811 | -112.05686 | 13272 ft | 171 kts | 49° |
| 2026-04-29 22:57 | 35.98546 | -112.04507 | 13607 ft | 176 kts | 49° |
| 2026-04-29 22:57 | 35.99333 | -112.03293 | 13615 ft | 191 kts | 49° |
| 2026-04-29 22:57 | 36.00203 | -112.01985 | 13651 ft | 201 kts | 48° |
| 2026-04-29 22:57 | 36.01134 | -112.00591 | 13458 ft | 220 kts | 47° |
| 2026-04-29 22:58 | 36.02115 | -111.99092 | 13600 ft | 223 kts | 50° |
| 2026-04-29 22:58 | 36.03136 | -111.97544 | 13466 ft | 241 kts | 47° |
| 2026-04-29 22:58 | 36.04356 | -111.96078 | 13468 ft | 248 kts | 40° |
| 2026-04-29 22:58 | 36.05532 | -111.94471 | 13434 ft | 256 kts | 53° |
| 2026-04-29 22:59 | 36.06451 | -111.92590 | 13433 ft | 263 kts | 60° |
| 2026-04-29 22:59 | 36.07045 | -111.91243 | 13432 ft | 266 kts | 60° |
| 2026-04-29 22:59 | 36.08320 | -111.88584 | 13428 ft | 270 kts | 57° |
| 2026-04-29 22:59 | 36.09323 | -111.86640 | 13405 ft | 273 kts | 57° |
| 2026-04-29 23:00 | 36.10332 | -111.84637 | 13388 ft | 276 kts | 58° |
| 2026-04-29 23:00 | 36.11010 | -111.83266 | 13381 ft | 277 kts | 58° |
| 2026-04-29 23:00 | 36.12346 | -111.80565 | 13371 ft | 278 kts | 58° |
| 2026-04-29 23:00 | 36.13363 | -111.78536 | 13343 ft | 279 kts | 56° |
| 2026-04-29 23:01 | 36.14053 | -111.77152 | 13330 ft | 278 kts | 56° |
| 2026-04-29 23:01 | 36.15058 | -111.75118 | 13322 ft | 277 kts | 57° |
| 2026-04-29 23:01 | 36.16064 | -111.73089 | 13325 ft | 276 kts | 57° |
| 2026-04-29 23:01 | 36.17070 | -111.71062 | 13319 ft | 277 kts | 56° |
| 2026-04-29 23:02 | 36.18082 | -111.69032 | 13323 ft | 276 kts | 57° |
| 2026-04-29 23:02 | 36.19085 | -111.67005 | 13315 ft | 276 kts | 57° |
| 2026-04-29 23:02 | 36.20073 | -111.65008 | 13308 ft | 275 kts | 57° |
| 2026-04-29 23:02 | 36.21074 | -111.62992 | 13298 ft | 274 kts | 57° |
| 2026-04-29 23:03 | 36.22071 | -111.60980 | 13295 ft | 275 kts | 57° |
| 2026-04-29 23:03 | 36.23080 | -111.58937 | 13304 ft | 280 kts | 57° |
| 2026-04-29 23:03 | 36.24101 | -111.56869 | 13307 ft | 283 kts | 57° |
| 2026-04-29 23:03 | 36.25132 | -111.54780 | 13306 ft | 285 kts | 57° |
| 2026-04-29 23:04 | 36.26170 | -111.52680 | 13301 ft | 287 kts | 57° |
| 2026-04-29 23:04 | 36.27192 | -111.50629 | 13300 ft | 287 kts | 59° |
| 2026-04-29 23:04 | 36.28195 | -111.48483 | 13307 ft | 287 kts | 60° |
| 2026-04-29 23:04 | 36.29211 | -111.46353 | 13306 ft | 288 kts | 58° |
| 2026-04-29 23:05 | 36.30271 | -111.44233 | 13297 ft | 289 kts | 58° |
| 2026-04-29 23:05 | 36.31327 | -111.42118 | 13300 ft | 289 kts | 58° |
| 2026-04-29 23:05 | 36.32370 | -111.39984 | 13298 ft | 289 kts | 58° |
| 2026-04-29 23:05 | 36.33412 | -111.37852 | 13300 ft | 289 kts | 58° |
| 2026-04-29 23:06 | 36.34458 | -111.35729 | 13306 ft | 289 kts | 58° |
| 2026-04-29 23:06 | 36.35509 | -111.33596 | 13309 ft | 289 kts | 58° |
| 2026-04-29 23:06 | 36.36556 | -111.31463 | 13300 ft | 289 kts | 58° |
| 2026-04-29 23:06 | 36.37602 | -111.29329 | 13314 ft | 290 kts | 58° |
| 2026-04-29 23:07 | 36.38650 | -111.27192 | 13308 ft | 290 kts | 58° |
| 2026-04-29 23:07 | 36.39697 | -111.25056 | 13309 ft | 290 kts | 58° |
| 2026-04-29 23:07 | 36.40740 | -111.22923 | 13310 ft | 289 kts | 58° |
| 2026-04-29 23:07 | 36.41785 | -111.20789 | 13313 ft | 289 kts | 58° |
| 2026-04-29 23:08 | 36.42830 | -111.18653 | 13311 ft | 289 kts | 58° |
| 2026-04-29 23:08 | 36.43875 | -111.16513 | 13317 ft | 289 kts | 58° |
| 2026-04-29 23:08 | 36.44905 | -111.14409 | 13318 ft | 289 kts | 58° |
| 2026-04-29 23:08 | 36.45957 | -111.12251 | 13315 ft | 289 kts | 58° |
| 2026-04-29 23:09 | 36.46995 | -111.10119 | 13315 ft | 289 kts | 58° |
| 2026-04-29 23:09 | 36.48022 | -111.08012 | 13322 ft | 289 kts | 58° |
| 2026-04-29 23:09 | 36.49062 | -111.05878 | 13321 ft | 289 kts | 58° |
| 2026-04-29 23:09 | 36.50104 | -111.03736 | 13314 ft | 289 kts | 58° |
| 2026-04-29 23:10 | 36.51143 | -111.01598 | 13317 ft | 288 kts | 58° |
| 2026-04-29 23:10 | 36.52176 | -110.99474 | 13319 ft | 288 kts | 58° |
| 2026-04-29 23:10 | 36.53215 | -110.97339 | 13323 ft | 289 kts | 58° |
| 2026-04-29 23:10 | 36.54258 | -110.95185 | 13324 ft | 289 kts | 58° |
| 2026-04-29 23:11 | 36.55297 | -110.93046 | 13329 ft | 289 kts | 58° |
| 2026-04-29 23:11 | 36.56337 | -110.90901 | 13324 ft | 289 kts | 58° |
| 2026-04-29 23:11 | 36.57372 | -110.88764 | 13320 ft | 289 kts | 58° |
| 2026-04-29 23:11 | 36.58410 | -110.86618 | 13322 ft | 289 kts | 58° |
| 2026-04-29 23:12 | 36.59441 | -110.84489 | 13330 ft | 289 kts | 58° |
| 2026-04-29 23:12 | 36.60483 | -110.82341 | 13327 ft | 290 kts | 58° |
| 2026-04-29 23:12 | 36.61520 | -110.80198 | 13328 ft | 290 kts | 58° |
| 2026-04-29 23:12 | 36.62559 | -110.78041 | 13331 ft | 290 kts | 58° |
| 2026-04-29 23:13 | 36.63603 | -110.75881 | 13329 ft | 290 kts | 58° |
| 2026-04-29 23:13 | 36.64646 | -110.73721 | 13328 ft | 290 kts | 58° |
| 2026-04-29 23:13 | 36.65682 | -110.71572 | 13331 ft | 291 kts | 58° |
| 2026-04-29 23:13 | 36.66726 | -110.69404 | 13336 ft | 291 kts | 58° |
| 2026-04-29 23:14 | 36.67761 | -110.67251 | 13335 ft | 290 kts | 58° |
| 2026-04-29 23:14 | 36.68803 | -110.65088 | 13331 ft | 291 kts | 58° |
| 2026-04-29 23:14 | 36.69844 | -110.62926 | 13330 ft | 291 kts | 58° |
| 2026-04-29 23:14 | 36.70883 | -110.60765 | 13335 ft | 291 kts | 58° |
| 2026-04-29 23:15 | 36.71926 | -110.58593 | 13334 ft | 292 kts | 58° |
| 2026-04-29 23:15 | 36.72966 | -110.56426 | 13331 ft | 291 kts | 58° |
| 2026-04-29 23:15 | 36.74000 | -110.54278 | 13333 ft | 292 kts | 58° |
| 2026-04-29 23:15 | 36.75041 | -110.52101 | 13341 ft | 292 kts | 58° |
| 2026-04-29 23:16 | 36.76080 | -110.49926 | 13333 ft | 293 kts | 58° |
| 2026-04-29 23:16 | 36.77130 | -110.47737 | 13339 ft | 293 kts | 59° |
| 2026-04-29 23:16 | 36.78172 | -110.45560 | 13333 ft | 292 kts | 59° |
| 2026-04-29 23:16 | 36.79208 | -110.43378 | 13338 ft | 293 kts | 57° |
| 2026-04-29 23:17 | 36.80290 | -110.41228 | 13329 ft | 293 kts | 56° |
| 2026-04-29 23:17 | 36.81352 | -110.39050 | 13325 ft | 293 kts | 57° |
| 2026-04-29 23:17 | 36.82380 | -110.36858 | 13313 ft | 293 kts | 58° |
| 2026-04-29 23:17 | 36.83416 | -110.34666 | 13316 ft | 293 kts | 57° |
| 2026-04-29 23:18 | 36.84465 | -110.32481 | 13321 ft | 294 kts | 57° |
| 2026-04-29 23:18 | 36.85515 | -110.30284 | 13316 ft | 295 kts | 58° |
| 2026-04-29 23:18 | 36.86558 | -110.28078 | 13306 ft | 295 kts | 58° |
| 2026-04-29 23:18 | 36.87603 | -110.25877 | 13304 ft | 294 kts | 57° |
| 2026-04-29 23:19 | 36.88653 | -110.23682 | 13304 ft | 295 kts | 57° |
| 2026-04-29 23:19 | 36.89685 | -110.21510 | 13298 ft | 294 kts | 58° |
| 2026-04-29 23:19 | 36.90736 | -110.19289 | 13301 ft | 292 kts | 58° |
| 2026-04-29 23:19 | 36.91759 | -110.17136 | 13301 ft | 292 kts | 58° |
| 2026-04-29 23:20 | 36.92807 | -110.14928 | 13304 ft | 291 kts | 58° |
| 2026-04-29 23:20 | 36.93840 | -110.12744 | 13301 ft | 292 kts | 58° |
| 2026-04-29 23:20 | 36.94859 | -110.10582 | 13302 ft | 292 kts | 58° |
| 2026-04-29 23:20 | 36.95893 | -110.08389 | 13306 ft | 293 kts | 58° |
| 2026-04-29 23:21 | 36.96930 | -110.06200 | 13310 ft | 292 kts | 58° |
| 2026-04-29 23:21 | 36.97966 | -110.04013 | 13308 ft | 293 kts | 58° |
| 2026-04-29 23:21 | 36.99000 | -110.01817 | 13300 ft | 293 kts | 58° |
| 2026-04-29 23:21 | 37.00038 | -109.99612 | 13305 ft | 294 kts | 58° |
| 2026-04-29 23:22 | 37.01081 | -109.97402 | 13303 ft | 295 kts | 58° |
| 2026-04-29 23:22 | 37.02110 | -109.95215 | 13298 ft | 295 kts | 58° |
| 2026-04-29 23:22 | 37.03155 | -109.92999 | 13296 ft | 296 kts | 58° |
| 2026-04-29 23:22 | 37.04196 | -109.90785 | 13296 ft | 296 kts | 58° |
| 2026-04-29 23:23 | 37.05240 | -109.88561 | 13296 ft | 296 kts | 58° |
| 2026-04-29 23:23 | 37.06284 | -109.86337 | 13299 ft | 296 kts | 58° |
| 2026-04-29 23:23 | 37.07332 | -109.84112 | 13297 ft | 296 kts | 58° |
| 2026-04-29 23:23 | 37.08378 | -109.81891 | 13292 ft | 296 kts | 58° |
| 2026-04-29 23:24 | 37.09420 | -109.79667 | 13295 ft | 295 kts | 58° |
| 2026-04-29 23:24 | 37.10459 | -109.77442 | 13290 ft | 295 kts | 58° |
| 2026-04-29 23:24 | 37.11503 | -109.75224 | 13292 ft | 295 kts | 57° |
| 2026-04-29 23:24 | 37.12530 | -109.73034 | 13287 ft | 295 kts | 58° |
| 2026-04-29 23:25 | 37.13565 | -109.70809 | 13288 ft | 296 kts | 58° |
| 2026-04-29 23:25 | 37.14602 | -109.68586 | 13288 ft | 295 kts | 58° |
| 2026-04-29 23:25 | 37.15640 | -109.66366 | 13285 ft | 295 kts | 57° |
| 2026-04-29 23:25 | 37.16677 | -109.64148 | 13284 ft | 294 kts | 58° |
| 2026-04-29 23:26 | 37.17709 | -109.61937 | 13283 ft | 294 kts | 57° |
| 2026-04-29 23:26 | 37.18740 | -109.59721 | 13286 ft | 293 kts | 57° |
| 2026-04-29 23:26 | 37.19767 | -109.57514 | 13278 ft | 294 kts | 57° |
| 2026-04-29 23:26 | 37.20797 | -109.55301 | 13283 ft | 293 kts | 57° |
| 2026-04-29 23:27 | 37.21827 | -109.53088 | 13282 ft | 293 kts | 57° |
| 2026-04-29 23:27 | 37.22853 | -109.50878 | 13290 ft | 293 kts | 57° |
| 2026-04-29 23:27 | 37.23878 | -109.48669 | 13290 ft | 292 kts | 57° |
| 2026-04-29 23:27 | 37.24885 | -109.46501 | 13298 ft | 292 kts | 57° |
| 2026-04-29 23:28 | 37.25908 | -109.44295 | 13298 ft | 292 kts | 57° |
| 2026-04-29 23:28 | 37.26928 | -109.42093 | 13302 ft | 292 kts | 57° |
| 2026-04-29 23:28 | 37.27951 | -109.39885 | 13309 ft | 292 kts | 57° |
| 2026-04-29 23:28 | 37.28970 | -109.37685 | 13306 ft | 292 kts | 57° |
| 2026-04-29 23:29 | 37.29988 | -109.35486 | 13315 ft | 291 kts | 57° |
| 2026-04-29 23:29 | 37.31018 | -109.33259 | 13320 ft | 291 kts | 57° |
| 2026-04-29 23:29 | 37.32021 | -109.31091 | 13317 ft | 291 kts | 57° |
| 2026-04-29 23:29 | 37.33038 | -109.28888 | 13317 ft | 290 kts | 57° |
| 2026-04-29 23:30 | 37.34048 | -109.26695 | 13320 ft | 290 kts | 57° |
| 2026-04-29 23:30 | 37.35057 | -109.24504 | 13317 ft | 290 kts | 57° |
| 2026-04-29 23:30 | 37.36065 | -109.22319 | 13323 ft | 290 kts | 57° |
| 2026-04-29 23:30 | 37.37075 | -109.20129 | 13316 ft | 290 kts | 57° |
| 2026-04-29 23:31 | 37.38084 | -109.17936 | 13312 ft | 290 kts | 57° |
| 2026-04-29 23:31 | 37.39094 | -109.15740 | 13313 ft | 290 kts | 58° |
| 2026-04-29 23:31 | 37.39873 | -109.14048 | 13310 ft | 289 kts | 58° |
| 2026-04-29 23:31 | 37.40883 | -109.11853 | 13264 ft | 290 kts | 58° |
| 2026-04-29 23:32 | 37.41893 | -109.09648 | 13259 ft | 290 kts | 58° |
| 2026-04-29 23:32 | 37.42898 | -109.07455 | 13256 ft | 289 kts | 58° |
| 2026-04-29 23:32 | 37.44014 | -109.05368 | 13269 ft | 287 kts | 46° |
| 2026-04-29 23:32 | 37.45447 | -109.03631 | 13266 ft | 285 kts | 38° |
| 2026-04-29 23:33 | 37.46942 | -109.01975 | 13264 ft | 285 kts | 40° |
| 2026-04-29 23:33 | 37.48337 | -109.00191 | 13257 ft | 286 kts | 45° |
| 2026-04-29 23:33 | 37.49652 | -108.98352 | 13264 ft | 287 kts | 45° |
| 2026-04-29 23:33 | 37.51017 | -108.96521 | 13270 ft | 286 kts | 43° |
| 2026-04-29 23:34 | 37.52410 | -108.94720 | 13272 ft | 287 kts | 43° |
| 2026-04-29 23:34 | 37.53794 | -108.92911 | 13280 ft | 286 kts | 44° |
| 2026-04-29 23:34 | 37.55164 | -108.91089 | 13275 ft | 286 kts | 44° |
| 2026-04-29 23:34 | 37.56537 | -108.89269 | 13279 ft | 286 kts | 44° |
| 2026-04-29 23:35 | 37.57913 | -108.87455 | 13285 ft | 286 kts | 44° |
| 2026-04-29 23:35 | 37.59291 | -108.85641 | 13283 ft | 286 kts | 43° |
| 2026-04-29 23:35 | 37.60666 | -108.83822 | 13282 ft | 286 kts | 44° |
| 2026-04-29 23:35 | 37.62037 | -108.82000 | 13281 ft | 287 kts | 44° |
| 2026-04-29 23:36 | 37.63414 | -108.80176 | 13279 ft | 287 kts | 43° |
| 2026-04-29 23:36 | 37.64772 | -108.78380 | 13281 ft | 286 kts | 44° |
| 2026-04-29 23:36 | 37.66144 | -108.76558 | 13284 ft | 286 kts | 44° |
| 2026-04-29 23:36 | 37.67516 | -108.74738 | 13284 ft | 286 kts | 44° |
| 2026-04-29 23:37 | 37.68889 | -108.72916 | 13284 ft | 285 kts | 44° |
| 2026-04-29 23:37 | 37.70261 | -108.71091 | 13285 ft | 286 kts | 43° |
| 2026-04-29 23:37 | 37.71632 | -108.69269 | 13283 ft | 287 kts | 44° |
| 2026-04-29 23:37 | 37.73007 | -108.67439 | 13283 ft | 287 kts | 44° |
| 2026-04-29 23:38 | 37.74381 | -108.65612 | 13285 ft | 286 kts | 43° |
| 2026-04-29 23:38 | 37.75750 | -108.63792 | 13285 ft | 286 kts | 44° |
| 2026-04-29 23:38 | 37.77118 | -108.61967 | 13287 ft | 286 kts | 44° |
| 2026-04-29 23:38 | 37.78486 | -108.60141 | 13284 ft | 287 kts | 44° |
| 2026-04-29 23:39 | 37.79840 | -108.58330 | 13292 ft | 286 kts | 44° |
| 2026-04-29 23:39 | 37.81213 | -108.56502 | 13289 ft | 287 kts | 43° |
| 2026-04-29 23:39 | 37.82587 | -108.54673 | 13292 ft | 286 kts | 43° |
| 2026-04-29 23:39 | 37.83954 | -108.52842 | 13287 ft | 287 kts | 44° |
| 2026-04-29 23:40 | 37.85324 | -108.51005 | 13293 ft | 287 kts | 44° |
| 2026-04-29 23:40 | 37.86696 | -108.49172 | 13289 ft | 287 kts | 44° |
| 2026-04-29 23:40 | 37.88068 | -108.47337 | 13290 ft | 287 kts | 44° |
| 2026-04-29 23:40 | 37.89442 | -108.45497 | 13284 ft | 288 kts | 44° |
| 2026-04-29 23:41 | 37.90814 | -108.43655 | 13292 ft | 288 kts | 43° |
| 2026-04-29 23:41 | 37.92190 | -108.41816 | 13299 ft | 287 kts | 43° |
| 2026-04-29 23:41 | 37.93552 | -108.39985 | 13290 ft | 284 kts | 43° |
| 2026-04-29 23:41 | 37.94898 | -108.38173 | 13292 ft | 281 kts | 43° |
| 2026-04-29 23:42 | 37.96237 | -108.36380 | 13290 ft | 278 kts | 43° |
| 2026-04-29 23:42 | 37.97563 | -108.34602 | 13309 ft | 277 kts | 43° |
| 2026-04-29 23:42 | 37.98882 | -108.32825 | 13320 ft | 277 kts | 43° |
| 2026-04-29 23:42 | 38.00200 | -108.31051 | 13325 ft | 276 kts | 43° |
| 2026-04-29 23:43 | 38.01029 | -108.29828 | 13319 ft | 276 kts | 51° |
| 2026-04-29 23:43 | 38.02108 | -108.26860 | 13331 ft | 280 kts | 72° |
| 2026-04-29 23:43 | 38.02318 | -108.25250 | 13345 ft | 281 kts | 84° |
| 2026-04-29 23:43 | 38.02203 | -108.22776 | 13357 ft | 282 kts | 100° |
| 2026-04-29 23:44 | 38.01571 | -108.20437 | 13370 ft | 280 kts | 116° |
| 2026-04-29 23:44 | 38.00590 | -108.18306 | 13375 ft | 281 kts | 121° |
| 2026-04-29 23:44 | 37.99714 | -108.16050 | 13112 ft | 288 kts | 108° |
| 2026-04-29 23:44 | 37.99286 | -108.13569 | 12756 ft | 288 kts | 99° |
| 2026-04-29 23:45 | 37.98897 | -108.11079 | 12385 ft | 287 kts | 100° |
| 2026-04-29 23:45 | 37.98468 | -108.08613 | 12013 ft | 281 kts | 102° |
| 2026-04-29 23:45 | 37.98052 | -108.06370 | 11972 ft | 243 kts | 101° |
| 2026-04-29 23:45 | 37.97729 | -108.04401 | 11999 ft | 208 kts | 99° |
| 2026-04-29 23:46 | 37.97467 | -108.02779 | 11998 ft | 175 kts | 100° |
| 2026-04-29 23:46 | 37.97265 | -108.01283 | 11829 ft | 175 kts | 96° |
| 2026-04-29 23:46 | 37.97056 | -107.99749 | 11374 ft | 174 kts | 99° |
| 2026-04-29 23:46 | 37.96832 | -107.98251 | 10817 ft | 171 kts | 100° |
| 2026-04-29 23:47 | 37.96566 | -107.96812 | 10377 ft | 164 kts | 101° |
| 2026-04-29 23:47 | 37.96324 | -107.95448 | 10008 ft | 148 kts | 103° |
| 2026-04-29 23:47 | 37.96079 | -107.94227 | 9610 ft | 138 kts | 102° |
| 2026-04-29 23:47 | 37.95844 | -107.93075 | 9252 ft | 132 kts | 103° |
| 2026-04-29 23:48 | 37.95615 | -107.91997 | 9048 ft | 121 kts | 101° |
| 2026-04-29 23:48 | 37.95430 | -107.91104 | 9015 ft | 92 kts | 99° |
| 2026-04-29 23:48 | 37.95294 | -107.90452 | 9030 ft | 58 kts | 106° |
| 2026-04-29 23:48 | 37.95266 | -107.90314 | 9035 ft | 37 kts | 103° |
| 2026-04-29 23:49 | 37.95284 | -107.90127 | 9052 ft | 2 kts | 10° |
| 2026-04-29 23:49 | 37.95240 | -107.90193 | 9040 ft | 4 kts | 104° |
| 2026-04-29 23:49 | 37.95258 | -107.90135 | 9045 ft | 11 kts | 21° |
| 2026-04-29 23:49 | 37.95325 | -107.90114 | 9052 ft | 10 kts | 347° |
| 2026-04-29 23:50 | 37.95365 | -107.90254 | 9052 ft | 16 kts | 300° |
| 2026-04-29 23:50 | 37.95406 | -107.90255 | 9052 ft | 9 kts | 23° |
| 2026-04-29 23:50 | 37.95416 | -107.90215 | 9052 ft | 0 kts | 194° |